LTFE/BJV METAR and TAF weather

Enter ICAO airport designator
Station Type Date Time Source
LTFE METAR 2020/04/05 12:50 UTC NOAA

LTFE 051250Z 26015KT 9999 SCT030 BKN090 19/14 Q1007 NOSIG


Station Type Date Time Source
LTFE Decoded METAR 2020/04/05 12:50 UTC NOAA

Bodrum Milas Airport, Turkey (LTFE) 37-14-53N 027-40-55E
Apr 05, 2020 - 08:50 AM EDT / 2020.04.05 1250 UTC
Wind: from the W (260 degrees) at 17 MPH (15 KT):0
Visibility: greater than 7 mile(s):0
Sky conditions: mostly cloudy
Temperature: 66 F (19 C)
Dew Point: 57 F (14 C)
Relative Humidity: 72%
Pressure (altimeter): 29.74 in. Hg (1007 hPa)
ob: LTFE 051250Z 26015KT 9999 SCT030 BKN090 19/14 Q1007 NOSIG
cycle: 13

Station Type Date Time Source
LTFE TAF 2020/04/05 12:03 UTC NOAA

TAF TAF LTFE 051040Z 0512/0612 24012KT 9999 SCT030 BKN090
TEMPO 0514/0518 -SHRA
BECMG 0514/0517 VRB02KT
TEMPO 0520/0524 -SHRA PROB30
TEMPO 0602/0606 -TSRA FEW020CB BKN030
BECMG 0608/0611 12013KT

Example: see airport list